createdAt,value
2023-03-19T00:00:32.219Z,12.00
2023-03-19T00:03:00.107Z,12.20
2023-03-19T00:05:27.957Z,14.50
2023-03-19T00:07:55.530Z,13.13
2023-03-19T00:10:23.492Z,14.83
2023-03-19T00:12:51.035Z,12.00
2023-03-19T00:15:22.023Z,13.60
2023-03-19T00:17:49.822Z,13.30
2023-03-19T00:20:18.367Z,14.00
2023-03-19T00:22:46.126Z,13.50
2023-03-19T00:25:14.084Z,15.00
2023-03-19T00:27:42.166Z,13.60
2023-03-19T00:30:11.287Z,13.70
2023-03-19T00:32:40.557Z,13.43
2023-03-19T00:35:09.558Z,13.00
2023-03-19T00:37:40.115Z,13.13
2023-03-19T00:40:10.973Z,13.07
2023-03-19T00:42:38.754Z,13.00
2023-03-19T00:45:07.720Z,13.83
2023-03-19T00:47:36.655Z,12.80
2023-03-19T00:50:18.230Z,12.93
2023-03-19T00:52:46.050Z,12.80
2023-03-19T00:55:15.695Z,12.43
2023-03-19T00:57:43.531Z,12.97
2023-03-19T01:00:12.456Z,12.83
2023-03-19T01:02:40.331Z,14.10
2023-03-19T01:05:12.144Z,13.87
2023-03-19T01:07:46.373Z,13.70
2023-03-19T01:10:14.427Z,13.77
2023-03-19T01:12:42.013Z,14.30
2023-03-19T01:15:10.927Z,13.30
2023-03-19T01:17:42.404Z,13.20
2023-03-19T01:20:15.216Z,14.57
2023-03-19T01:22:53.072Z,13.10
2023-03-19T01:25:21.390Z,13.90
2023-03-19T01:28:26.252Z,12.37
2023-03-19T01:30:54.376Z,13.20
2023-03-19T01:33:42.639Z,13.23
2023-03-19T01:36:14.646Z,13.70
2023-03-19T01:39:03.424Z,12.50
2023-03-19T01:41:31.657Z,14.03
2023-03-19T01:44:31.555Z,13.47
2023-03-19T01:47:20.052Z,13.33
2023-03-19T01:50:23.221Z,13.33
2023-03-19T01:53:15.613Z,13.37
2023-03-19T01:55:53.985Z,13.97
2023-03-19T01:58:58.719Z,12.50
2023-03-19T02:01:51.871Z,13.07
2023-03-19T02:04:38.087Z,12.60
2023-03-19T02:07:16.710Z,12.47
2023-03-19T02:09:49.094Z,14.43
2023-03-19T02:12:18.921Z,13.80
2023-03-19T02:14:46.436Z,12.93
2023-03-19T02:17:13.954Z,12.97
2023-03-19T02:19:48.061Z,12.30
2023-03-19T02:22:24.697Z,11.43
2023-03-19T02:25:04.042Z,13.57
2023-03-19T02:27:36.801Z,11.87
2023-03-19T02:30:34.981Z,12.50
2023-03-19T02:33:22.941Z,11.77
2023-03-19T02:35:53.118Z,11.70
2023-03-19T02:38:26.112Z,11.90
2023-03-19T02:40:56.164Z,11.40
2023-03-19T02:43:25.139Z,11.20
2023-03-19T02:45:52.921Z,10.23
2023-03-19T02:48:20.480Z,11.67
2023-03-19T02:50:58.920Z,11.40
2023-03-19T02:53:39.604Z,10.70
2023-03-19T02:56:07.793Z,11.10
2023-03-19T02:58:36.656Z,10.87
2023-03-19T03:01:04.752Z,9.83
2023-03-19T03:03:33.473Z,10.67
2023-03-19T03:06:00.990Z,11.27
2023-03-19T03:08:29.140Z,10.50
2023-03-19T03:10:56.861Z,10.90
2023-03-19T03:13:25.248Z,10.70
2023-03-19T03:15:54.219Z,10.90
2023-03-19T03:18:21.814Z,11.40
2023-03-19T03:20:52.068Z,10.77
2023-03-19T03:26:13.339Z,10.27
2023-03-19T03:28:41.131Z,11.27
2023-03-19T03:31:10.115Z,10.67
2023-03-19T03:33:40.572Z,11.03
2023-03-19T03:36:15.694Z,10.60
2023-03-19T03:38:43.246Z,10.90
2023-03-19T03:41:10.857Z,11.27
2023-03-19T03:43:39.488Z,9.73
2023-03-19T03:46:07.771Z,9.80
2023-03-19T03:48:36.700Z,9.40
2023-03-19T03:51:04.559Z,9.40
2023-03-19T03:53:33.229Z,10.70
2023-03-19T03:56:03.368Z,10.20
2023-03-19T03:58:31.889Z,10.93
2023-03-19T04:00:59.733Z,9.67
2023-03-19T04:03:27.980Z,9.60
2023-03-19T04:05:57.183Z,9.83
2023-03-19T04:08:24.846Z,9.83
2023-03-19T04:10:52.612Z,9.13
2023-03-19T04:17:01.807Z,9.53
2023-03-19T04:19:30.256Z,9.63
2023-03-19T04:21:59.563Z,9.13
2023-03-19T04:24:28.423Z,9.50
2023-03-19T04:26:56.917Z,10.50
2023-03-19T04:29:32.801Z,9.70
2023-03-19T04:32:01.506Z,9.63
2023-03-19T04:34:29.234Z,9.70
2023-03-19T04:39:56.840Z,9.07
2023-03-19T04:42:24.798Z,9.03
2023-03-19T04:45:03.119Z,9.53
2023-03-19T04:47:30.820Z,9.87
2023-03-19T04:50:00.860Z,8.30
2023-03-19T04:52:29.587Z,8.73
2023-03-19T04:55:01.832Z,8.30
2023-03-19T04:57:31.135Z,9.33
2023-03-19T04:59:59.563Z,9.30
2023-03-19T05:02:28.162Z,9.87
2023-03-19T05:04:56.258Z,8.93
2023-03-19T05:07:24.268Z,9.60
2023-03-19T05:09:52.086Z,9.03
2023-03-19T05:12:22.987Z,8.70
2023-03-19T05:14:52.350Z,8.30
2023-03-19T05:17:29.969Z,8.73
2023-03-19T05:20:09.396Z,9.23
2023-03-19T05:22:37.830Z,9.50
2023-03-19T05:25:06.850Z,8.47
2023-03-19T05:27:36.247Z,8.50
2023-03-19T05:30:08.267Z,9.90
2023-03-19T05:32:55.339Z,8.83
2023-03-19T05:35:33.252Z,9.00
2023-03-19T05:38:02.660Z,10.37
2023-03-19T05:40:31.999Z,9.73
2023-03-19T05:43:04.994Z,9.50
2023-03-19T05:45:32.485Z,9.70
2023-03-19T05:48:06.259Z,10.50
2023-03-19T05:50:40.055Z,9.70
2023-03-19T05:53:21.470Z,11.33
2023-03-19T05:56:06.627Z,10.60
2023-03-19T05:58:44.128Z,10.60
2023-03-19T06:01:12.324Z,10.53
2023-03-19T06:03:40.104Z,11.00
2023-03-19T06:06:09.607Z,9.90
2023-03-19T06:08:42.782Z,10.17
2023-03-19T06:11:17.102Z,9.97
2023-03-19T06:13:51.667Z,10.53
2023-03-19T06:16:19.700Z,11.47
2023-03-19T06:18:56.937Z,10.17
2023-03-19T06:21:29.368Z,13.57
2023-03-19T06:23:59.397Z,11.03
2023-03-19T06:26:33.301Z,12.27
2023-03-19T06:29:05.203Z,11.47
2023-03-19T06:31:33.327Z,11.97
2023-03-19T06:34:03.798Z,10.07
2023-03-19T06:36:39.378Z,13.37
2023-03-19T06:39:10.136Z,11.77
2023-03-19T06:41:38.122Z,13.30
2023-03-19T06:44:14.913Z,12.93
2023-03-19T06:46:42.520Z,11.33
2023-03-19T06:49:10.229Z,12.20
2023-03-19T06:51:37.799Z,12.07
2023-03-19T06:54:05.359Z,12.27
2023-03-19T06:56:32.814Z,12.37
2023-03-19T06:59:00.350Z,14.57
2023-03-19T07:01:29.201Z,13.20
2023-03-19T07:03:57.275Z,11.83
2023-03-19T07:06:24.783Z,13.97
2023-03-19T07:08:52.238Z,12.90
2023-03-19T07:11:19.735Z,12.27
2023-03-19T07:13:47.230Z,12.53
2023-03-19T07:16:14.763Z,11.87
2023-03-19T07:18:44.813Z,11.90
2023-03-19T07:21:12.428Z,10.87
2023-03-19T07:23:41.289Z,11.60
2023-03-19T07:26:08.787Z,10.67
2023-03-19T07:28:36.283Z,11.37
2023-03-19T07:31:03.886Z,11.10
2023-03-19T07:33:31.483Z,10.07
2023-03-19T07:36:00.626Z,10.80
2023-03-19T07:38:28.095Z,10.33
2023-03-19T07:41:02.459Z,10.50
2023-03-19T07:43:30.817Z,10.57
2023-03-19T07:45:58.507Z,11.13
2023-03-19T07:48:26.179Z,9.87
2023-03-19T07:50:54.113Z,10.30
2023-03-19T07:53:23.041Z,9.23
2023-03-19T07:55:50.734Z,9.30
2023-03-19T07:58:18.269Z,9.77
2023-03-19T08:00:46.115Z,8.30
2023-03-19T08:03:13.671Z,9.03
2023-03-19T08:05:41.305Z,8.73
2023-03-19T08:08:08.927Z,8.13
2023-03-19T08:10:38.806Z,7.67
2023-03-19T08:13:06.962Z,8.60
2023-03-19T08:15:34.681Z,8.80
2023-03-19T08:18:04.897Z,8.43
2023-03-19T08:20:33.027Z,8.60
2023-03-19T08:23:00.851Z,8.00
2023-03-19T08:25:32.307Z,8.20
2023-03-19T08:28:01.663Z,8.20
2023-03-19T08:30:29.277Z,8.27
2023-03-19T08:32:56.821Z,7.73
2023-03-19T08:35:26.895Z,9.30
2023-03-19T08:37:54.595Z,8.70
2023-03-19T08:40:22.432Z,8.03
2023-03-19T08:42:49.956Z,9.00
2023-03-19T08:45:19.570Z,7.90
2023-03-19T08:47:47.104Z,8.37
2023-03-19T08:50:14.745Z,8.70
2023-03-19T08:52:42.278Z,8.07
2023-03-19T08:55:10.573Z,8.03
2023-03-19T08:57:38.320Z,6.67
2023-03-19T09:00:06.966Z,7.10
2023-03-19T09:02:35.940Z,7.80
2023-03-19T09:05:03.473Z,6.97
2023-03-19T09:07:31.051Z,6.70
2023-03-19T09:09:58.560Z,6.37
2023-03-19T09:12:26.436Z,7.40
2023-03-19T09:14:53.917Z,6.43
2023-03-19T09:17:21.393Z,5.97
2023-03-19T09:19:50.228Z,6.63
2023-03-19T09:22:17.714Z,7.30
2023-03-19T09:24:45.333Z,7.23
2023-03-19T09:27:13.087Z,6.90
2023-03-19T09:29:41.128Z,7.30
2023-03-19T09:32:08.870Z,6.90
2023-03-19T09:34:36.615Z,6.57
2023-03-19T09:37:05.584Z,6.97
2023-03-19T09:39:33.374Z,5.63
2023-03-19T09:42:11.789Z,5.03
2023-03-19T09:44:40.934Z,4.37
2023-03-19T09:47:20.821Z,4.80
2023-03-19T09:49:49.314Z,4.80
2023-03-19T09:52:25.800Z,4.27
2023-03-19T09:54:58.259Z,3.67
2023-03-19T09:57:25.992Z,3.03
2023-03-19T09:59:54.774Z,3.67
2023-03-19T10:02:33.332Z,3.67
2023-03-19T10:05:11.568Z,3.07
2023-03-19T10:08:05.670Z,2.50
2023-03-19T10:10:49.956Z,2.43
2023-03-19T10:13:27.431Z,3.00
2023-03-19T10:15:55.307Z,2.13
2023-03-19T10:18:26.758Z,2.67
2023-03-19T10:20:57.169Z,2.13
2023-03-19T10:23:32.637Z,2.87
2023-03-19T10:26:04.031Z,3.50
2023-03-19T10:28:31.866Z,2.70
2023-03-19T10:31:12.040Z,3.33
2023-03-19T10:33:45.036Z,2.83
2023-03-19T10:36:15.710Z,3.40
2023-03-19T10:38:45.368Z,3.43
2023-03-19T10:41:22.307Z,3.27
2023-03-19T10:43:54.298Z,2.90
2023-03-19T10:46:22.705Z,3.00
2023-03-19T10:48:50.234Z,2.90
2023-03-19T10:51:20.199Z,3.63
2023-03-19T10:53:49.393Z,3.80
2023-03-19T10:56:19.715Z,3.20
2023-03-19T10:58:58.420Z,3.40
2023-03-19T11:01:29.777Z,2.87
2023-03-19T11:03:58.644Z,3.37
2023-03-19T11:06:27.694Z,3.10
2023-03-19T11:08:59.172Z,3.77
2023-03-19T11:11:33.022Z,3.40
2023-03-19T11:14:09.857Z,3.63
2023-03-19T11:16:57.330Z,3.00
2023-03-19T11:19:27.988Z,2.97
2023-03-19T11:22:08.991Z,3.27
2023-03-19T11:24:40.128Z,3.80
2023-03-19T11:27:11.582Z,3.07
2023-03-19T11:29:43.323Z,2.73
2023-03-19T11:32:23.203Z,3.10
2023-03-19T11:34:53.957Z,3.60
2023-03-19T11:37:28.412Z,2.90
2023-03-19T11:40:03.651Z,2.73
2023-03-19T11:42:58.954Z,2.87
2023-03-19T11:45:32.896Z,2.67
2023-03-19T11:48:10.356Z,3.00
2023-03-19T11:50:41.393Z,3.00
2023-03-19T11:53:18.991Z,3.30
2023-03-19T11:55:53.920Z,3.53
2023-03-19T11:58:36.048Z,3.30
2023-03-19T12:01:07.506Z,3.50
2023-03-19T12:03:56.966Z,3.80
2023-03-19T12:06:32.950Z,3.57
2023-03-19T12:09:03.669Z,3.47
2023-03-19T12:11:38.413Z,3.73
2023-03-19T12:14:30.119Z,4.10
2023-03-19T12:17:16.289Z,3.60
2023-03-19T12:20:04.310Z,4.23
2023-03-19T12:22:41.009Z,3.43
2023-03-19T12:25:24.130Z,6.90
2023-03-19T12:27:56.598Z,6.07
2023-03-19T12:30:33.675Z,4.50
2023-03-19T12:33:12.151Z,5.40
2023-03-19T12:35:44.823Z,5.70
2023-03-19T12:38:18.164Z,5.47
2023-03-19T12:40:49.489Z,5.50
2023-03-19T12:43:23.437Z,5.60
2023-03-19T12:45:52.673Z,6.10
2023-03-19T12:48:24.396Z,4.80
2023-03-19T12:50:54.097Z,4.43
2023-03-19T12:53:29.979Z,6.80
2023-03-19T12:55:59.142Z,6.27
2023-03-19T12:58:34.918Z,5.30
2023-03-19T13:01:08.966Z,5.30
2023-03-19T13:03:42.298Z,5.63
2023-03-19T13:06:14.004Z,5.30
2023-03-19T13:08:46.164Z,5.27
2023-03-19T13:11:16.795Z,5.10
2023-03-19T13:13:52.473Z,4.40
2023-03-19T13:16:32.088Z,3.97
2023-03-19T13:19:17.839Z,4.10
2023-03-19T13:21:46.394Z,3.90
2023-03-19T13:24:21.685Z,3.70
2023-03-19T13:26:50.369Z,4.07
2023-03-19T13:29:21.491Z,3.33
2023-03-19T13:31:50.221Z,3.73
2023-03-19T13:34:24.915Z,3.50
2023-03-19T13:36:55.750Z,3.93
2023-03-19T13:39:36.224Z,3.10
2023-03-19T13:42:23.868Z,3.57
2023-03-19T13:44:57.226Z,3.63
2023-03-19T13:47:49.684Z,3.97
2023-03-19T13:50:34.431Z,3.33
2023-03-19T13:53:22.193Z,3.20
2023-03-19T13:55:53.640Z,3.20
2023-03-19T13:58:41.701Z,3.77
2023-03-19T14:01:13.047Z,3.47
2023-03-19T14:03:42.363Z,3.90
2023-03-19T14:06:32.764Z,3.90
2023-03-19T14:09:00.532Z,4.10
2023-03-19T14:11:32.661Z,4.80
2023-03-19T14:14:03.084Z,4.40
2023-03-19T14:16:34.773Z,4.83
2023-03-19T14:19:05.211Z,5.83
2023-03-19T14:21:36.154Z,5.03
2023-03-19T14:27:29.578Z,5.77
2023-03-19T14:30:00.511Z,5.63
2023-03-19T14:32:35.641Z,5.33
2023-03-19T14:35:05.733Z,4.70
2023-03-19T14:37:42.863Z,6.17
2023-03-19T14:40:14.229Z,5.67
2023-03-19T14:42:54.556Z,5.50
2023-03-19T14:45:36.346Z,6.13
2023-03-19T14:48:16.533Z,5.37
2023-03-19T14:50:55.022Z,7.50
2023-03-19T14:53:25.911Z,7.50
2023-03-19T14:55:54.605Z,8.17
2023-03-19T14:58:26.435Z,7.07
2023-03-19T15:00:55.743Z,7.43
2023-03-19T15:03:33.874Z,8.57
2023-03-19T15:06:03.268Z,7.90
2023-03-19T15:08:34.518Z,6.90
2023-03-19T15:11:13.516Z,6.80
2023-03-19T15:14:05.275Z,7.27
2023-03-19T15:16:38.829Z,7.60
2023-03-19T15:19:13.192Z,7.60
2023-03-19T15:21:41.335Z,7.73
2023-03-19T15:24:15.967Z,7.47
2023-03-19T15:26:45.649Z,6.50
2023-03-19T15:29:18.640Z,7.10
2023-03-19T15:31:57.632Z,7.90
2023-03-19T15:34:37.298Z,8.80
2023-03-19T15:37:06.751Z,8.20
2023-03-19T15:39:36.848Z,9.03
2023-03-19T15:42:05.791Z,9.40
2023-03-19T15:44:41.618Z,11.00
2023-03-19T15:47:14.201Z,10.10
2023-03-19T15:49:46.417Z,12.20
2023-03-19T15:52:16.185Z,15.27
2023-03-19T15:54:43.961Z,15.30
2023-03-19T15:57:14.274Z,15.60
2023-03-19T15:59:42.474Z,15.50
2023-03-19T16:02:17.939Z,16.13
2023-03-19T16:05:14.092Z,15.27
2023-03-19T16:07:41.610Z,15.27
2023-03-19T16:10:36.239Z,15.77
2023-03-19T16:13:05.805Z,15.97
2023-03-19T16:15:41.684Z,16.27
2023-03-19T16:18:26.165Z,14.43
2023-03-19T16:21:08.170Z,15.53
2023-03-19T16:23:42.053Z,14.93
2023-03-19T16:26:19.806Z,16.00
2023-03-19T16:28:50.108Z,17.03
2023-03-19T16:31:23.145Z,16.67
2023-03-19T16:33:52.902Z,16.63
2023-03-19T16:36:22.975Z,16.20
2023-03-19T16:38:56.953Z,16.27
2023-03-19T16:41:28.944Z,15.60
2023-03-19T16:44:01.439Z,14.73
2023-03-19T16:46:43.961Z,15.00
2023-03-19T16:49:16.810Z,16.00
2023-03-19T16:51:46.257Z,17.03
2023-03-19T16:54:14.044Z,16.30
2023-03-19T16:56:41.992Z,17.03
2023-03-19T16:59:14.151Z,16.87
2023-03-19T17:01:42.458Z,19.27
2023-03-19T17:04:13.697Z,18.33
2023-03-19T17:06:47.453Z,18.63
2023-03-19T17:09:19.344Z,18.10
2023-03-19T17:11:47.143Z,17.97
2023-03-19T17:14:18.672Z,18.07
2023-03-19T17:16:53.299Z,19.10
2023-03-19T17:19:23.173Z,19.80
2023-03-19T17:21:53.438Z,18.13
2023-03-19T17:24:27.057Z,18.27
2023-03-19T17:26:55.464Z,20.27
2023-03-19T17:29:24.981Z,20.27
2023-03-19T17:31:53.151Z,20.87
2023-03-19T17:34:22.546Z,19.67
2023-03-19T17:36:51.683Z,20.30
2023-03-19T17:39:20.148Z,22.07
2023-03-19T17:41:49.336Z,19.77
2023-03-19T17:44:17.863Z,21.60
2023-03-19T17:46:47.236Z,21.10
2023-03-19T17:49:21.873Z,21.97
2023-03-19T17:51:50.235Z,22.77
2023-03-19T17:54:21.384Z,23.47
2023-03-19T17:56:50.607Z,24.60
2023-03-19T17:59:18.355Z,23.67
2023-03-19T18:01:47.186Z,25.00
2023-03-19T18:04:16.971Z,25.83
2023-03-19T18:06:46.898Z,24.20
2023-03-19T18:09:20.113Z,22.27
2023-03-19T18:11:48.023Z,24.70
2023-03-19T18:14:17.981Z,23.70
2023-03-19T18:16:46.563Z,25.03
2023-03-19T18:19:20.395Z,24.70
2023-03-19T18:21:48.231Z,33.90
2023-03-19T18:24:16.186Z,27.20
2023-03-19T18:26:43.916Z,26.53
2023-03-19T18:29:11.668Z,26.33
2023-03-19T18:31:41.450Z,27.67
2023-03-19T18:34:09.841Z,27.43
2023-03-19T18:36:38.755Z,26.07
2023-03-19T18:39:10.820Z,26.80
2023-03-19T18:41:38.369Z,26.73
2023-03-19T18:44:06.253Z,27.97
2023-03-19T18:46:34.651Z,29.10
2023-03-19T18:49:06.388Z,29.23
2023-03-19T18:51:34.029Z,30.90
2023-03-19T18:54:02.175Z,30.20
2023-03-19T18:56:32.919Z,28.07
2023-03-19T18:59:01.593Z,29.80
2023-03-19T19:01:29.636Z,30.57
2023-03-19T19:03:57.231Z,31.33
2023-03-19T19:06:46.865Z,32.13
2023-03-19T19:09:15.288Z,30.47
2023-03-19T19:11:45.353Z,30.83
2023-03-19T19:14:18.041Z,29.20
2023-03-19T19:16:46.073Z,31.27
2023-03-19T19:19:17.747Z,36.57
2023-03-19T19:21:46.931Z,33.00
2023-03-19T19:24:15.004Z,33.67
2023-03-19T19:26:44.222Z,32.37
2023-03-19T19:29:17.625Z,34.70
2023-03-19T19:31:45.614Z,33.77
2023-03-19T19:34:14.548Z,32.70
2023-03-19T19:36:42.238Z,32.30
2023-03-19T19:39:11.524Z,34.90
2023-03-19T19:41:39.869Z,34.00
2023-03-19T19:44:07.923Z,32.80
2023-03-19T19:46:36.000Z,32.57
2023-03-19T19:49:03.816Z,32.07
2023-03-19T19:51:31.490Z,31.93
2023-03-19T19:53:59.220Z,31.90
2023-03-19T19:56:29.809Z,32.00
2023-03-19T19:58:57.710Z,30.63
2023-03-19T20:01:27.407Z,32.10
2023-03-19T20:03:55.541Z,30.67
2023-03-19T20:06:23.211Z,30.80
2023-03-19T20:08:50.966Z,32.93
2023-03-19T20:11:20.533Z,37.60
2023-03-19T20:13:52.848Z,32.03
2023-03-19T20:16:21.739Z,33.90
2023-03-19T20:18:51.097Z,34.70
2023-03-19T20:21:18.818Z,38.43
2023-03-19T20:23:47.508Z,37.73
2023-03-19T20:26:16.773Z,38.23
2023-03-19T20:28:45.428Z,39.17
2023-03-19T20:31:18.771Z,35.70
2023-03-19T20:33:46.852Z,35.50
2023-03-19T20:36:15.608Z,37.30
2023-03-19T20:38:43.356Z,38.73
2023-03-19T20:41:18.379Z,38.40
2023-03-19T20:43:46.492Z,40.80
2023-03-19T20:46:16.355Z,39.17
2023-03-19T20:48:43.886Z,38.53
2023-03-19T20:51:17.271Z,38.40
2023-03-19T20:53:44.808Z,36.03
2023-03-19T20:56:15.854Z,36.33
2023-03-19T20:58:43.421Z,37.10
2023-03-19T21:01:11.731Z,36.93
2023-03-19T21:03:40.715Z,36.20
2023-03-19T21:06:14.275Z,36.00
2023-03-19T21:08:43.703Z,35.03
2023-03-19T21:11:14.351Z,35.00
2023-03-19T21:13:42.399Z,30.20
2023-03-19T21:16:14.285Z,33.10
2023-03-19T21:18:43.230Z,33.33
2023-03-19T21:21:12.157Z,33.33
2023-03-19T21:23:40.028Z,33.70
2023-03-19T21:26:09.957Z,34.13
2023-03-19T21:28:38.878Z,32.03
2023-03-19T21:31:07.484Z,28.80
2023-03-19T21:33:36.167Z,30.80
2023-03-19T21:36:06.348Z,30.77
2023-03-19T21:38:34.149Z,29.87
2023-03-19T21:41:04.005Z,27.00
2023-03-19T21:43:34.842Z,29.53
2023-03-19T21:46:17.434Z,26.97
2023-03-19T21:48:50.763Z,28.43
2023-03-19T21:51:19.704Z,28.77
2023-03-19T21:53:47.561Z,26.00
2023-03-19T21:56:20.494Z,27.03
2023-03-19T21:58:48.088Z,26.90
2023-03-19T22:01:18.194Z,26.83
2023-03-19T22:03:46.294Z,26.57
2023-03-19T22:06:14.456Z,26.67
2023-03-19T22:08:44.474Z,27.37
2023-03-19T22:11:17.610Z,27.53
2023-03-19T22:13:45.172Z,26.50
2023-03-19T22:16:18.522Z,26.97
2023-03-19T22:18:46.507Z,27.27
2023-03-19T22:21:16.524Z,26.20
2023-03-19T22:23:46.605Z,26.23
2023-03-19T22:26:26.368Z,24.60
2023-03-19T22:28:54.588Z,25.13
2023-03-19T22:31:22.892Z,24.33
2023-03-19T22:33:50.663Z,27.60
2023-03-19T22:36:18.353Z,25.50
2023-03-19T22:38:48.689Z,25.87
2023-03-19T22:41:18.372Z,25.90
2023-03-19T22:43:46.630Z,24.20
2023-03-19T22:46:16.273Z,23.30
2023-03-19T22:48:47.842Z,26.70
2023-03-19T22:51:17.677Z,26.30
2023-03-19T22:53:46.965Z,26.10
2023-03-19T22:56:14.922Z,27.70
2023-03-19T22:58:42.577Z,26.47
2023-03-19T23:01:31.521Z,26.40
2023-03-19T23:04:00.256Z,27.70
2023-03-19T23:06:30.922Z,27.80
2023-03-19T23:08:59.894Z,27.63
2023-03-19T23:11:27.389Z,27.50
2023-03-19T23:13:56.646Z,27.73
2023-03-19T23:16:25.966Z,27.90
2023-03-19T23:21:21.662Z,28.10
2023-03-19T23:23:49.619Z,27.83
2023-03-19T23:26:26.184Z,27.87
2023-03-19T23:28:53.826Z,27.57
2023-03-19T23:31:21.442Z,28.63
2023-03-19T23:33:48.956Z,27.90
2023-03-19T23:36:17.075Z,27.97
2023-03-19T23:38:45.019Z,28.33
2023-03-19T23:41:20.494Z,27.70
2023-03-19T23:43:49.497Z,27.07
2023-03-19T23:46:17.093Z,28.10
2023-03-19T23:48:44.621Z,29.63
2023-03-19T23:51:14.408Z,26.07
2023-03-19T23:53:42.538Z,27.87
2023-03-19T23:56:19.907Z,27.70
2023-03-19T23:58:50.479Z,27.70
